Time;durP1;ratioP1;P1;durP2;ratioP2;P2;SDS_P1;SDS_P2;PMS_P1;PMS_P2;Temp;Humidity;BMP_temperature;BMP_pressure;BME280_temperature;BME280_humidity;BME280_pressure;Samples;Min_cycle;Max_cycle;Signal;HPM_P1;HPM_P2
2020/12/30 00:03:10;;;;;;;47.33;28.70;;;;;;;;;;10445799;27;20098;-61
2020/12/30 00:08:08;;;;;;;44.50;28.83;;;;;;;;;;10446439;27;20059;-61
2020/12/30 00:13:06;;;;;;;37.35;26.17;;;;;;;;;;10446750;27;20074;-62
2020/12/30 00:18:04;;;;;;;45.05;30.58;;;;;;;;;;10443323;27;20074;-62
2020/12/30 00:23:01;;;;;;;46.92;33.83;;;;;;;;;;10435623;27;20074;-62
2020/12/30 00:27:58;;;;;;;39.55;27.17;;;;;;;;;;10434403;27;20075;-62
2020/12/30 00:32:56;;;;;;;78.43;46.30;;;;;;;;;;10444073;27;20435;-63
2020/12/30 00:37:54;;;;;;;82.85;53.42;;;;;;;;;;10436849;27;20074;-63
2020/12/30 00:42:51;;;;;;;57.70;41.05;;;;;;;;;;10442690;27;20097;-63
2020/12/30 00:47:49;;;;;;;80.50;54.08;;;;;;;;;;10443194;27;20070;-62
2020/12/30 00:52:48;;;;;;;70.53;44.53;;;;;;;;;;10424370;27;20055;-63
2020/12/30 00:57:46;;;;;;;110.43;69.78;;;;;;;;;;10425873;27;20043;-64
2020/12/30 01:02:44;;;;;;;97.68;64.43;;;;;;;;;;10425736;27;20114;-62
2020/12/30 01:07:41;;;;;;;89.78;55.45;;;;;;;;;;10442846;27;20531;-62
2020/12/30 01:12:39;;;;;;;114.57;68.13;;;;;;;;;;10444636;27;20070;-62
2020/12/30 01:17:37;;;;;;;73.65;48.17;;;;;;;;;;10441207;27;20523;-62
2020/12/30 01:22:34;;;;;;;79.60;52.85;;;;;;;;;;10444309;27;20105;-61
2020/12/30 01:27:31;;;;;;;71.25;46.58;;;;;;;;;;10444552;27;20035;-62
2020/12/30 01:32:30;;;;;;;80.03;52.30;;;;;;;;;;10440292;27;20539;-62
2020/12/30 01:37:27;;;;;;;80.70;54.30;;;;;;;;;;10439587;27;20035;-62
2020/12/30 01:42:24;;;;;;;53.85;37.00;;;;;;;;;;10442001;27;20465;-61
2020/12/30 01:47:21;;;;;;;54.28;35.35;;;;;;;;;;10441257;27;20481;-62
2020/12/30 01:52:20;;;;;;;58.28;36.72;;;;;;;;;;10442828;27;20082;-61
2020/12/30 01:57:17;;;;;;;55.85;40.13;;;;;;;;;;10442267;27;20082;-61
2020/12/30 02:02:15;;;;;;;153.02;82.78;;;;;;;;;;10423280;27;20530;-61
2020/12/30 02:07:13;;;;;;;89.72;51.63;;;;;;;;;;10441861;27;20039;-61
2020/12/30 02:12:11;;;;;;;50.75;35.45;;;;;;;;;;10441203;27;20046;-61
2020/12/30 02:17:11;;;;;;;46.28;30.77;;;;;;;;;;10441188;27;20071;-62
2020/12/30 02:22:10;;;;;;;40.67;25.98;;;;;;;;;;10442258;27;20081;-62
2020/12/30 02:27:08;;;;;;;33.08;21.00;;;;;;;;;;10441827;27;20074;-61
2020/12/30 02:32:05;;;;;;;29.30;20.33;;;;;;;;;;10441449;27;20081;-63
2020/12/30 02:37:03;;;;;;;30.98;20.02;;;;;;;;;;10440513;27;20061;-63
2020/12/30 02:42:00;;;;;;;37.78;27.60;;;;;;;;;;10441201;27;20501;-63
2020/12/30 02:46:58;;;;;;;26.88;18.67;;;;;;;;;;10440538;27;20415;-62
2020/12/30 02:51:55;;;;;;;24.38;17.17;;;;;;;;;;10437457;27;20051;-62
2020/12/30 02:56:53;;;;;;;27.75;19.90;;;;;;;;;;10440014;27;20075;-62
2020/12/30 03:01:50;;;;;;;22.80;15.02;;;;;;;;;;10437273;27;20074;-62
2020/12/30 03:06:48;;;;;;;14.88;11.45;;;;;;;;;;10436503;27;20039;-62
2020/12/30 03:11:47;;;;;;;19.05;10.75;;;;;;;;;;10439362;27;20453;-62
2020/12/30 03:16:45;;;;;;;16.10;12.10;;;;;;;;;;10438730;27;20063;-61
2020/12/30 03:21:42;;;;;;;12.45;8.82;;;;;;;;;;10439517;27;20073;-61
2020/12/30 03:26:40;;;;;;;21.30;14.38;;;;;;;;;;10438204;27;20046;-61
2020/12/30 03:31:38;;;;;;;22.38;13.07;;;;;;;;;;10427688;27;20047;-62
2020/12/30 03:36:35;;;;;;;11.23;7.85;;;;;;;;;;10423497;28;20070;-62
2020/12/30 03:41:32;;;;;;;39.28;28.08;;;;;;;;;;10427261;28;20070;-61
2020/12/30 03:46:31;;;;;;;36.92;27.55;;;;;;;;;;10438308;28;20078;-62
2020/12/30 03:51:28;;;;;;;40.67;26.13;;;;;;;;;;10438327;28;20164;-62
2020/12/30 03:56:25;;;;;;;34.08;20.27;;;;;;;;;;10438858;28;20526;-62
2020/12/30 04:01:22;;;;;;;24.38;16.52;;;;;;;;;;10438064;28;20499;-62
2020/12/30 04:06:21;;;;;;;34.72;23.58;;;;;;;;;;10438152;28;20082;-63
2020/12/30 04:11:18;;;;;;;38.70;25.63;;;;;;;;;;10438829;28;20059;-62
2020/12/30 04:16:20;;;;;;;27.25;14.30;;;;;;;;;;10437713;28;20369;-61
2020/12/30 04:21:18;;;;;;;39.33;31.73;;;;;;;;;;10438632;28;20073;-61
2020/12/30 04:26:16;;;;;;;45.05;29.75;;;;;;;;;;10438807;27;20039;-63
2020/12/30 04:31:13;;;;;;;43.67;38.30;;;;;;;;;;10446472;27;20044;-63
2020/12/30 04:36:13;;;;;;;37.65;30.23;;;;;;;;;;10445197;27;20070;-63
2020/12/30 04:41:10;;;;;;;28.52;21.40;;;;;;;;;;10441085;27;20086;-62
2020/12/30 04:46:10;;;;;;;23.08;19.02;;;;;;;;;;10423143;27;20051;-63
2020/12/30 04:51:09;;;;;;;56.03;41.72;;;;;;;;;;10440906;27;20487;-62
2020/12/30 04:56:08;;;;;;;72.63;42.83;;;;;;;;;;10442243;27;20043;-61
2020/12/30 05:01:07;;;;;;;40.13;26.73;;;;;;;;;;10444073;27;20082;-63
2020/12/30 05:06:05;;;;;;;35.15;23.55;;;;;;;;;;10444903;27;20035;-62
2020/12/30 05:11:04;;;;;;;60.60;38.10;;;;;;;;;;10444765;27;20039;-63
2020/12/30 05:16:01;;;;;;;68.57;42.90;;;;;;;;;;10443220;27;20050;-62
2020/12/30 05:20:58;;;;;;;62.72;41.70;;;;;;;;;;10444449;27;20488;-62
2020/12/30 05:25:58;;;;;;;21.63;12.35;;;;;;;;;;10440901;27;20389;-62
2020/12/30 05:30:56;;;;;;;127.65;88.50;;;;;;;;;;10441262;27;20420;-62
2020/12/30 05:35:53;;;;;;;75.03;50.63;;;;;;;;;;10443731;27;20067;-63
2020/12/30 05:40:50;;;;;;;72.63;51.30;;;;;;;;;;10442770;27;20459;-63
2020/12/30 05:45:49;;;;;;;57.97;43.85;;;;;;;;;;10443600;27;20074;-63
2020/12/30 05:50:47;;;;;;;55.85;40.00;;;;;;;;;;10442141;27;20051;-63
2020/12/30 05:55:47;;;;;;;142.88;111.82;;;;;;;;;;10443150;27;20039;-63
2020/12/30 06:00:45;;;;;;;375.17;207.80;;;;;;;;;;10442253;27;20078;-63
2020/12/30 06:05:43;;;;;;;235.07;135.32;;;;;;;;;;10439648;27;20479;-61
2020/12/30 06:10:41;;;;;;;57.75;33.95;;;;;;;;;;10425164;27;20086;-63
2020/12/30 06:15:47;;;;;;;35.53;20.55;;;;;;;;;;10479316;27;20034;-61
2020/12/30 06:20:51;;;;;;;163.65;103.93;;;;;;;;;;10480963;27;20503;-63
2020/12/30 06:25:48;;;;;;;203.20;130.35;;;;;;;;;;10482967;27;20057;-62
2020/12/30 06:30:47;;;;;;;448.65;285.95;;;;;;;;;;10483403;27;20402;-62
2020/12/30 06:35:44;;;;;;;131.85;90.15;;;;;;;;;;10480567;27;20067;-61
2020/12/30 06:40:51;;;;;;;133.80;90.72;;;;;;;;;;10480143;27;20074;-62
2020/12/30 06:45:51;;;;;;;89.63;61.92;;;;;;;;;;10481042;27;20434;-62
2020/12/30 06:50:49;;;;;;;70.57;46.28;;;;;;;;;;10477169;27;20043;-62
2020/12/30 06:55:47;;;;;;;54.55;38.03;;;;;;;;;;10457462;27;20431;-62
2020/12/30 07:00:56;;;;;;;60.25;40.17;;;;;;;;;;10457031;27;20070;-62
2020/12/30 07:05:53;;;;;;;58.22;46.38;;;;;;;;;;10458171;27;20094;-63
2020/12/30 07:10:51;;;;;;;67.28;42.55;;;;;;;;;;10461243;27;20035;-63
2020/12/30 07:15:49;;;;;;;61.42;48.75;;;;;;;;;;10456175;27;20038;-63
2020/12/30 07:20:46;;;;;;;43.67;31.27;;;;;;;;;;10455774;27;20082;-61
2020/12/30 07:25:49;;;;;;;16.42;10.93;;;;;;;;;;10460481;27;20256;-62
2020/12/30 07:30:47;;;;;;;19.15;12.00;;;;;;;;;;10451538;27;20061;-62
2020/12/30 07:35:45;;;;;;;24.40;9.00;;;;;;;;;;10457438;27;20058;-62
2020/12/30 09:43:56;;;;;;;62.75;36.60;;;;;;;;;;10465074;27;20066;-61
2020/12/30 09:48:53;;;;;;;37.67;21.85;;;;;;;;;;10465059;27;20038;-63
2020/12/30 09:53:51;;;;;;;27.80;17.48;;;;;;;;;;10461858;27;20066;-63
2020/12/30 09:58:49;;;;;;;25.35;15.98;;;;;;;;;;10445635;27;20401;-61
2020/12/30 10:03:47;;;;;;;25.67;15.20;;;;;;;;;;10452193;27;20702;-62
2020/12/30 10:08:44;;;;;;;32.33;20.00;;;;;;;;;;10463136;27;20039;-63
2020/12/30 10:13:42;;;;;;;34.88;23.13;;;;;;;;;;10453159;27;20073;-62
2020/12/30 10:18:39;;;;;;;18.88;11.13;;;;;;;;;;10463794;27;20054;-62
2020/12/30 10:23:38;;;;;;;32.47;21.67;;;;;;;;;;10458489;27;20515;-63
2020/12/30 10:28:35;;;;;;;23.95;16.23;;;;;;;;;;10449783;27;20054;-62
2020/12/30 10:33:32;;;;;;;22.00;13.60;;;;;;;;;;10450655;27;20096;-61
2020/12/30 10:38:30;;;;;;;21.77;11.90;;;;;;;;;;10460907;27;20045;-62
2020/12/30 10:43:28;;;;;;;23.45;14.98;;;;;;;;;;10442748;27;20082;-61
2020/12/30 10:48:26;;;;;;;24.13;16.17;;;;;;;;;;10448024;27;20062;-63
2020/12/30 10:53:23;;;;;;;13.70;9.10;;;;;;;;;;10457398;27;20062;-62
2020/12/30 10:58:20;;;;;;;74.32;46.17;;;;;;;;;;10456365;27;20424;-62
2020/12/30 11:03:19;;;;;;;23.17;13.48;;;;;;;;;;10456461;27;20074;-62
2020/12/30 11:08:17;;;;;;;42.83;24.17;;;;;;;;;;10459774;27;20088;-62
2020/12/30 11:13:14;;;;;;;349.55;217.98;;;;;;;;;;10461345;27;20094;-62
2020/12/30 11:18:12;;;;;;;36.00;25.30;;;;;;;;;;10460360;27;20072;-62
2020/12/30 11:23:10;;;;;;;31.05;21.40;;;;;;;;;;10453359;27;20082;-63
2020/12/30 11:28:08;;;;;;;26.08;14.25;;;;;;;;;;10457617;27;20074;-61
2020/12/30 11:33:06;;;;;;;53.88;29.17;;;;;;;;;;10459447;27;20059;-61
2020/12/30 11:38:03;;;;;;;23.27;13.75;;;;;;;;;;10459634;27;20073;-62
2020/12/30 11:43:01;;;;;;;8.10;4.57;;;;;;;;;;10469426;27;20078;-61
2020/12/30 11:47:59;;;;;;;13.70;8.68;;;;;;;;;;10479964;27;20830;-62
2020/12/30 11:52:56;;;;;;;21.75;13.20;;;;;;;;;;10480137;27;20074;-62
2020/12/30 11:57:54;;;;;;;21.63;10.88;;;;;;;;;;10479739;27;20050;-62
2020/12/30 12:02:52;;;;;;;32.60;17.00;;;;;;;;;;10479561;27;20074;-62
2020/12/30 12:07:49;;;;;;;53.85;25.45;;;;;;;;;;10480676;27;20038;-62
2020/12/30 12:12:47;;;;;;;32.03;17.40;;;;;;;;;;10480241;27;20042;-62
2020/12/30 12:17:44;;;;;;;29.08;16.65;;;;;;;;;;10479476;27;20056;-62
2020/12/30 12:22:43;;;;;;;18.75;10.43;;;;;;;;;;10479255;27;20082;-63
2020/12/30 12:27:40;;;;;;;22.70;13.55;;;;;;;;;;10479007;27;20042;-63
2020/12/30 12:32:37;;;;;;;24.15;12.80;;;;;;;;;;10477860;27;20051;-63
2020/12/30 12:37:35;;;;;;;53.17;36.33;;;;;;;;;;10481586;27;20046;-62
2020/12/30 12:42:33;;;;;;;22.42;15.95;;;;;;;;;;10474844;27;20511;-62
2020/12/30 12:47:30;;;;;;;23.90;17.15;;;;;;;;;;10479354;27;20039;-63
2020/12/30 12:52:27;;;;;;;66.22;39.22;;;;;;;;;;10488289;27;20049;-62
2020/12/30 12:57:25;;;;;;;27.52;16.02;;;;;;;;;;10485622;27;20066;-63
2020/12/30 13:02:23;;;;;;;19.15;11.48;;;;;;;;;;10485316;27;20078;-62
2020/12/30 13:07:20;;;;;;;34.97;20.08;;;;;;;;;;10486889;27;20410;-61
2020/12/30 13:12:18;;;;;;;60.33;37.08;;;;;;;;;;10485087;27;20050;-62
2020/12/30 13:17:15;;;;;;;92.75;65.15;;;;;;;;;;10486370;27;20072;-61
2020/12/30 13:22:13;;;;;;;112.05;73.90;;;;;;;;;;10487343;27;20066;-62
2020/12/30 13:27:10;;;;;;;25.77;16.40;;;;;;;;;;10486060;27;20054;-62
2020/12/30 13:32:08;;;;;;;26.65;18.55;;;;;;;;;;10486781;27;20050;-62
2020/12/30 13:37:05;;;;;;;41.17;31.50;;;;;;;;;;10486805;27;20408;-62
2020/12/30 13:42:03;;;;;;;21.88;6.25;;;;;;;;;;10485814;27;20078;-63
2020/12/30 13:47:01;;;;;;;17.25;11.38;;;;;;;;;;10482889;27;20078;-62
2020/12/30 13:51:58;;;;;;;9.40;6.55;;;;;;;;;;10483028;27;20034;-61
2020/12/30 13:56:56;;;;;;;31.65;16.10;;;;;;;;;;10483349;27;20069;-62
2020/12/30 14:01:55;;;;;;;14.35;7.45;;;;;;;;;;10482038;27;20070;-62
2020/12/30 14:06:52;;;;;;;13.43;6.07;;;;;;;;;;10485340;27;20073;-63
2020/12/30 14:11:50;;;;;;;8.50;4.40;;;;;;;;;;10485012;27;20039;-63
2020/12/30 14:16:48;;;;;;;8.05;4.20;;;;;;;;;;10484534;27;20062;-62
2020/12/30 14:21:48;;;;;;;13.30;5.65;;;;;;;;;;10484303;27;20066;-61
2020/12/30 14:26:45;;;;;;;17.55;8.60;;;;;;;;;;10484111;27;20038;-62
2020/12/30 14:31:49;;;;;;;14.45;8.40;;;;;;;;;;10483177;27;20078;-62
2020/12/30 14:36:48;;;;;;;20.52;11.45;;;;;;;;;;10483943;27;20046;-62
2020/12/30 14:41:51;;;;;;;38.30;29.90;;;;;;;;;;10463897;27;20157;-62
2020/12/30 14:46:49;;;;;;;71.03;53.40;;;;;;;;;;10483470;27;20043;-64
2020/12/30 14:51:50;;;;;;;43.72;28.25;;;;;;;;;;10483091;27;20035;-63
2020/12/30 14:56:50;;;;;;;61.42;35.38;;;;;;;;;;10480938;27;20074;-63
2020/12/30 15:01:50;;;;;;;20.45;13.68;;;;;;;;;;10480391;27;20081;-62
2020/12/30 15:06:47;;;;;;;25.98;20.65;;;;;;;;;;10482687;27;20035;-62
2020/12/30 15:11:46;;;;;;;28.75;17.15;;;;;;;;;;10480376;27;20077;-63
2020/12/30 15:16:43;;;;;;;39.58;23.15;;;;;;;;;;10481931;27;20062;-63
2020/12/30 15:21:40;;;;;;;43.60;21.42;;;;;;;;;;10479033;27;20081;-62
2020/12/30 15:26:37;;;;;;;82.82;47.70;;;;;;;;;;10467327;27;20093;-62
2020/12/30 15:31:36;;;;;;;20.42;13.20;;;;;;;;;;10479476;27;20050;-61
2020/12/30 15:36:34;;;;;;;19.40;10.48;;;;;;;;;;10481058;27;20410;-63
2020/12/30 15:41:31;;;;;;;18.15;8.25;;;;;;;;;;10471146;27;20132;-63
2020/12/30 15:46:29;;;;;;;37.22;20.38;;;;;;;;;;10458536;27;20071;-62
2020/12/30 15:51:27;;;;;;;36.70;17.15;;;;;;;;;;10444621;27;20062;-62
2020/12/30 15:56:25;;;;;;;115.22;71.18;;;;;;;;;;10431364;27;20064;-62
2020/12/30 16:01:22;;;;;;;246.88;145.95;;;;;;;;;;10439142;27;20079;-62
2020/12/30 16:06:21;;;;;;;192.10;117.38;;;;;;;;;;10450040;27;20507;-62
2020/12/30 16:11:19;;;;;;;53.38;32.97;;;;;;;;;;10452779;27;20074;-62
2020/12/30 16:16:17;;;;;;;28.75;18.40;;;;;;;;;;10448347;27;20069;-63
2020/12/30 16:21:18;;;;;;;21.30;12.30;;;;;;;;;;10451277;27;20078;-63
2020/12/30 16:26:15;;;;;;;26.75;16.15;;;;;;;;;;10462344;27;20067;-63
2020/12/30 16:31:16;;;;;;;66.18;38.72;;;;;;;;;;10464854;27;20081;-63
2020/12/30 16:36:13;;;;;;;35.97;21.55;;;;;;;;;;10453206;27;20090;-63
2020/12/30 16:41:16;;;;;;;67.43;36.08;;;;;;;;;;10450035;27;20065;-62
2020/12/30 16:46:17;;;;;;;57.40;36.58;;;;;;;;;;10459628;27;20077;-62
2020/12/30 16:51:14;;;;;;;128.48;70.80;;;;;;;;;;10470317;27;20075;-62
2020/12/30 16:56:14;;;;;;;74.28;38.95;;;;;;;;;;10463978;27;20893;-62
2020/12/30 17:01:12;;;;;;;50.92;27.85;;;;;;;;;;10473622;27;20070;-62
2020/12/30 17:06:11;;;;;;;357.65;174.70;;;;;;;;;;10476785;27;20066;-62
2020/12/30 17:11:09;;;;;;;43.55;27.92;;;;;;;;;;10482944;27;20054;-62
2020/12/30 17:16:08;;;;;;;66.22;35.70;;;;;;;;;;10481076;27;20070;-62
2020/12/30 17:21:08;;;;;;;131.18;70.50;;;;;;;;;;10478499;27;20506;-61
2020/12/30 17:26:09;;;;;;;21.85;13.32;;;;;;;;;;10482737;27;20515;-62
2020/12/30 17:31:07;;;;;;;21.15;12.52;;;;;;;;;;10474645;27;20073;-64
2020/12/30 17:36:04;;;;;;;85.25;44.22;;;;;;;;;;10476349;27;20058;-62
2020/12/30 17:41:01;;;;;;;50.40;28.05;;;;;;;;;;10481001;27;20050;-62
2020/12/30 17:45:59;;;;;;;51.95;28.05;;;;;;;;;;10460184;27;20506;-61
2020/12/30 17:50:57;;;;;;;27.88;15.30;;;;;;;;;;10465305;27;20039;-62
2020/12/30 17:55:54;;;;;;;26.15;15.32;;;;;;;;;;10463481;27;20058;-62
2020/12/30 18:00:51;;;;;;;16.05;9.73;;;;;;;;;;10462851;27;20628;-62
2020/12/30 18:05:50;;;;;;;60.63;31.48;;;;;;;;;;10462894;27;20081;-61
2020/12/30 18:10:51;;;;;;;76.75;32.50;;;;;;;;;;10462428;27;20415;-61
2020/12/30 18:15:48;;;;;;;130.23;70.55;;;;;;;;;;10463489;27;20046;-62
2020/12/30 18:20:46;;;;;;;22.40;11.85;;;;;;;;;;10462088;27;20038;-61
2020/12/30 18:25:44;;;;;;;88.93;47.13;;;;;;;;;;10463623;27;20449;-63
2020/12/30 18:30:41;;;;;;;124.22;70.55;;;;;;;;;;10460377;27;20163;-63
2020/12/30 18:35:39;;;;;;;33.33;17.88;;;;;;;;;;10457461;27;20039;-61
2020/12/30 18:40:36;;;;;;;11.25;4.90;;;;;;;;;;10464698;27;20050;-62
2020/12/30 18:45:35;;;;;;;46.30;27.98;;;;;;;;;;10481602;27;20077;-62
2020/12/30 18:50:33;;;;;;;20.90;13.57;;;;;;;;;;10481972;27;20039;-62
2020/12/30 18:55:31;;;;;;;31.33;20.65;;;;;;;;;;10481685;27;20059;-62
2020/12/30 19:00:28;;;;;;;24.20;14.27;;;;;;;;;;10482411;27;20456;-63
2020/12/30 19:05:26;;;;;;;19.95;12.73;;;;;;;;;;10481630;27;20148;-63
2020/12/30 19:10:24;;;;;;;21.80;12.88;;;;;;;;;;10481420;27;20038;-61
2020/12/30 19:15:21;;;;;;;26.05;14.70;;;;;;;;;;10481997;27;20050;-62
2020/12/30 19:20:18;;;;;;;30.45;12.73;;;;;;;;;;10459871;27;20431;-62
2020/12/30 19:25:17;;;;;;;20.17;8.95;;;;;;;;;;10481317;27;20066;-62
2020/12/30 19:30:14;;;;;;;40.25;19.10;;;;;;;;;;10480443;27;20108;-62
2020/12/30 19:35:11;;;;;;;29.90;14.02;;;;;;;;;;10480751;27;20043;-62
2020/12/30 19:40:09;;;;;;;19.98;10.23;;;;;;;;;;10479435;27;20495;-63
2020/12/30 19:45:07;;;;;;;11.75;6.68;;;;;;;;;;10479856;27;20089;-62
2020/12/30 19:50:06;;;;;;;15.68;7.93;;;;;;;;;;10480223;27;20059;-61
2020/12/30 19:55:05;;;;;;;13.18;7.25;;;;;;;;;;10470786;27;20070;-62
2020/12/30 20:00:05;;;;;;;19.17;10.25;;;;;;;;;;10470606;27;20507;-62
2020/12/30 20:05:09;;;;;;;28.35;11.35;;;;;;;;;;10481289;27;20074;-62
2020/12/30 20:10:09;;;;;;;13.38;6.93;;;;;;;;;;10477544;27;20077;-62
2020/12/30 20:15:10;;;;;;;11.82;8.98;;;;;;;;;;10480808;27;20074;-62
2020/12/30 20:20:08;;;;;;;9.55;4.05;;;;;;;;;;10483039;27;20476;-61
2020/12/30 20:25:06;;;;;;;15.57;5.85;;;;;;;;;;10480857;27;20068;-63
2020/12/30 20:30:04;;;;;;;23.95;7.93;;;;;;;;;;10484092;27;20538;-63
2020/12/30 20:35:01;;;;;;;17.20;7.43;;;;;;;;;;10487842;27;20435;-61
2020/12/30 20:39:59;;;;;;;13.73;5.07;;;;;;;;;;10485133;27;20062;-63
2020/12/30 20:44:57;;;;;;;10.20;4.40;;;;;;;;;;10467604;27;20083;-63
2020/12/30 20:49:54;;;;;;;14.13;5.22;;;;;;;;;;10465460;27;20065;-63
2020/12/30 20:54:52;;;;;;;8.63;4.38;;;;;;;;;;10466332;27;20070;-63
2020/12/30 20:59:49;;;;;;;11.73;4.35;;;;;;;;;;10465798;27;20038;-62
2020/12/30 21:04:47;;;;;;;11.30;5.40;;;;;;;;;;10450832;27;20077;-62
2020/12/30 21:09:44;;;;;;;14.82;5.10;;;;;;;;;;10445235;27;20077;-63
2020/12/30 21:14:42;;;;;;;10.80;5.00;;;;;;;;;;10426634;27;20332;-63
2020/12/30 21:19:39;;;;;;;10.88;5.70;;;;;;;;;;10437905;27;20070;-62
2020/12/30 21:24:38;;;;;;;10.98;5.82;;;;;;;;;;10466826;27;20070;-63
2020/12/30 21:29:35;;;;;;;8.52;4.53;;;;;;;;;;10466544;27;20067;-61
2020/12/30 21:34:33;;;;;;;12.93;4.45;;;;;;;;;;10466508;27;20073;-63
2020/12/30 21:39:30;;;;;;;14.85;4.22;;;;;;;;;;10465327;27;20483;-63
2020/12/30 21:44:28;;;;;;;16.85;7.28;;;;;;;;;;10463582;27;20128;-62
2020/12/30 21:49:25;;;;;;;14.70;4.65;;;;;;;;;;10463627;27;20042;-63
2020/12/30 21:54:23;;;;;;;11.38;4.70;;;;;;;;;;10465308;27;20085;-63
2020/12/30 21:59:20;;;;;;;11.10;4.25;;;;;;;;;;10460086;27;20042;-63
2020/12/30 22:04:18;;;;;;;9.98;3.17;;;;;;;;;;10460077;27;20081;-63
2020/12/30 22:09:16;;;;;;;13.32;3.35;;;;;;;;;;10457511;27;20093;-62
2020/12/30 22:14:17;;;;;;;9.70;3.92;;;;;;;;;;10460698;27;20074;-63
2020/12/30 22:19:14;;;;;;;10.35;4.28;;;;;;;;;;10462235;27;20042;-64
2020/12/30 22:24:13;;;;;;;11.10;4.38;;;;;;;;;;10462347;27;20062;-63
2020/12/30 22:29:10;;;;;;;9.57;4.18;;;;;;;;;;10462895;27;20034;-63
2020/12/30 22:34:07;;;;;;;12.52;4.82;;;;;;;;;;10462839;27;20074;-62
2020/12/30 22:39:05;;;;;;;12.27;5.22;;;;;;;;;;10464039;27;20039;-62
2020/12/30 22:44:03;;;;;;;11.52;3.80;;;;;;;;;;10460746;27;20079;-63
2020/12/30 22:49:00;;;;;;;12.52;3.80;;;;;;;;;;10464032;27;20484;-63
2020/12/30 22:53:57;;;;;;;11.90;3.85;;;;;;;;;;10461125;27;20046;-64
2020/12/30 22:58:55;;;;;;;8.27;3.55;;;;;;;;;;10461214;27;20047;-64
2020/12/30 23:03:53;;;;;;;9.63;3.63;;;;;;;;;;10462194;27;20066;-63
2020/12/30 23:08:50;;;;;;;6.47;4.18;;;;;;;;;;10461692;27;20031;-63
2020/12/30 23:13:48;;;;;;;12.27;3.92;;;;;;;;;;10461557;27;20082;-63
2020/12/30 23:18:45;;;;;;;10.32;3.72;;;;;;;;;;10460201;27;20081;-62
2020/12/30 23:23:47;;;;;;;10.60;3.35;;;;;;;;;;10461767;27;20066;-63
2020/12/30 23:28:44;;;;;;;9.70;3.17;;;;;;;;;;10460502;27;20043;-64
2020/12/30 23:33:42;;;;;;;13.13;2.97;;;;;;;;;;10456244;27;20054;-63
2020/12/30 23:38:39;;;;;;;8.20;2.83;;;;;;;;;;10457286;27;20067;-63
2020/12/30 23:43:40;;;;;;;10.27;3.45;;;;;;;;;;10460754;27;20071;-63
2020/12/30 23:48:37;;;;;;;12.18;3.33;;;;;;;;;;10460617;27;20035;-63
2020/12/30 23:53:34;;;;;;;14.55;4.20;;;;;;;;;;10460301;27;20519;-63
2020/12/30 23:58:32;;;;;;;10.02;3.67;;;;;;;;;;10460886;27;20043;-63
